sensor_id;sensor_type;location;lat;lon;timestamp;pressure;altitude;pressure_sealevel;temperature;humidity
46199;BME280;31928;52.104;10.030;2022-10-23T05:23:39;100484.81;;;17.24;55.53
46199;BME280;31928;52.104;10.030;2022-10-23T05:26:06;100481.88;;;17.25;55.61
46199;BME280;31928;52.104;10.030;2022-10-23T05:28:32;100470.53;;;17.28;55.50
46199;BME280;31928;52.104;10.030;2022-10-23T05:30:59;100476.78;;;17.29;55.72
46199;BME280;31928;52.104;10.030;2022-10-23T05:33:27;100474.63;;;17.31;55.63
46199;BME280;31928;52.104;10.030;2022-10-23T05:35:55;100480.88;;;17.31;55.37
46199;BME280;31928;52.104;10.030;2022-10-23T05:38:21;100479.22;;;17.30;55.59
46199;BME280;31928;52.104;10.030;2022-10-23T05:40:49;100488.44;;;17.29;55.63
46199;BME280;31928;52.104;10.030;2022-10-23T05:43:16;100485.97;;;17.28;55.71
46199;BME280;31928;52.104;10.030;2022-10-23T05:45:42;100477.84;;;17.28;55.48
46199;BME280;31928;52.104;10.030;2022-10-23T05:48:09;100478.09;;;17.26;55.65
46199;BME280;31928;52.104;10.030;2022-10-23T05:50:55;100475.94;;;17.28;55.59
46199;BME280;31928;52.104;10.030;2022-10-23T05:53:21;100476.78;;;17.29;55.63
46199;BME280;31928;52.104;10.030;2022-10-23T05:55:48;100472.16;;;17.29;55.88
46199;BME280;31928;52.104;10.030;2022-10-23T05:58:14;100465.44;;;17.32;55.90
46199;BME280;31928;52.104;10.030;2022-10-23T06:00:40;100462.47;;;17.33;55.35
46199;BME280;31928;52.104;10.030;2022-10-23T06:03:07;100462.47;;;17.33;55.63
46199;BME280;31928;52.104;10.030;2022-10-23T06:05:33;100466.56;;;17.36;55.68
46199;BME280;31928;52.104;10.030;2022-10-23T06:07:59;100458.16;;;17.37;55.38
46199;BME280;31928;52.104;10.030;2022-10-23T06:10:26;100457.09;;;17.38;55.73
46199;BME280;31928;52.104;10.030;2022-10-23T06:12:53;100455.19;;;17.39;56.36
46199;BME280;31928;52.104;10.030;2022-10-23T06:15:19;100458.81;;;17.44;56.79
46199;BME280;31928;52.104;10.030;2022-10-23T06:17:45;100458.03;;;17.48;56.80
46199;BME280;31928;52.104;10.030;2022-10-23T06:20:12;100464.63;;;17.57;57.31
46199;BME280;31928;52.104;10.030;2022-10-23T06:22:38;100460.13;;;17.68;57.00
46199;BME280;31928;52.104;10.030;2022-10-23T06:25:05;100465.66;;;17.78;57.36
46199;BME280;31928;52.104;10.030;2022-10-23T06:27:32;100463.84;;;17.88;57.19
46199;BME280;31928;52.104;10.030;2022-10-23T06:29:58;100452.81;;;18.00;56.85
46199;BME280;31928;52.104;10.030;2022-10-23T06:32:24;100460.22;;;18.09;56.73
46199;BME280;31928;52.104;10.030;2022-10-23T06:34:51;100454.66;;;18.20;56.70
46199;BME280;31928;52.104;10.030;2022-10-23T06:37:17;100458.50;;;18.29;56.63
46199;BME280;31928;52.104;10.030;2022-10-23T06:39:43;100452.31;;;18.39;56.51
46199;BME280;31928;52.104;10.030;2022-10-23T06:42:10;100453.25;;;18.49;56.27
46199;BME280;31928;52.104;10.030;2022-10-23T06:44:37;100452.75;;;18.57;56.44
46199;BME280;31928;52.104;10.030;2022-10-23T06:47:03;100451.16;;;18.66;56.56
46199;BME280;31928;52.104;10.030;2022-10-23T06:49:30;100454.75;;;18.76;55.99
46199;BME280;31928;52.104;10.030;2022-10-23T06:51:56;100453.97;;;18.86;56.08
46199;BME280;31928;52.104;10.030;2022-10-23T06:54:22;100455.69;;;18.97;55.93
46199;BME280;31928;52.104;10.030;2022-10-23T06:56:49;100454.13;;;19.06;55.79
46199;BME280;31928;52.104;10.030;2022-10-23T06:59:16;100451.69;;;19.14;55.33
46199;BME280;31928;52.104;10.030;2022-10-23T07:01:42;100454.72;;;19.23;55.35
46199;BME280;31928;52.104;10.030;2022-10-23T07:04:09;100447.69;;;19.31;55.22
46199;BME280;31928;52.104;10.030;2022-10-23T07:06:39;100453.69;;;19.38;54.87
46199;BME280;31928;52.104;10.030;2022-10-23T07:09:05;100447.19;;;19.44;55.11
46199;BME280;31928;52.104;10.030;2022-10-23T07:11:32;100459.69;;;19.50;54.93
46199;BME280;31928;52.104;10.030;2022-10-23T07:13:58;100450.47;;;19.56;54.93
46199;BME280;31928;52.104;10.030;2022-10-23T07:16:24;100449.41;;;19.62;54.81
46199;BME280;31928;52.104;10.030;2022-10-23T07:18:55;100442.06;;;19.68;54.32
46199;BME280;31928;52.104;10.030;2022-10-23T07:21:25;100435.78;;;19.72;54.69
46199;BME280;31928;52.104;10.030;2022-10-23T07:23:51;100431.47;;;19.76;54.15
46199;BME280;31928;52.104;10.030;2022-10-23T07:26:18;100426.28;;;19.80;54.26
46199;BME280;31928;52.104;10.030;2022-10-23T07:28:45;100424.63;;;19.84;54.18
46199;BME280;31928;52.104;10.030;2022-10-23T07:31:11;100430.38;;;19.87;54.22
46199;BME280;31928;52.104;10.030;2022-10-23T07:33:38;100429.81;;;19.90;54.25
46199;BME280;31928;52.104;10.030;2022-10-23T07:36:05;100423.88;;;19.93;54.30
46199;BME280;31928;52.104;10.030;2022-10-23T07:38:32;100435.84;;;19.97;54.09
46199;BME280;31928;52.104;10.030;2022-10-23T07:40:58;100433.66;;;19.99;54.17
46199;BME280;31928;52.104;10.030;2022-10-23T07:43:25;100430.41;;;20.02;54.44
46199;BME280;31928;52.104;10.030;2022-10-23T07:45:52;100419.25;;;20.03;54.05
46199;BME280;31928;52.104;10.030;2022-10-23T07:48:18;100414.09;;;20.07;54.26
46199;BME280;31928;52.104;10.030;2022-10-23T07:50:46;100424.41;;;20.10;54.23
46199;BME280;31928;52.104;10.030;2022-10-23T07:53:17;100420.06;;;20.14;53.99
46199;BME280;31928;52.104;10.030;2022-10-23T07:55:50;100419.50;;;20.17;54.25
46199;BME280;31928;52.104;10.030;2022-10-23T07:58:17;100416.78;;;20.22;53.93
46199;BME280;31928;52.104;10.030;2022-10-23T08:00:43;100415.41;;;20.24;54.11
46199;BME280;31928;52.104;10.030;2022-10-23T08:03:10;100414.63;;;20.29;54.14
46199;BME280;31928;52.104;10.030;2022-10-23T08:05:37;100422.22;;;20.32;54.03
46199;BME280;31928;52.104;10.030;2022-10-23T08:08:04;100408.59;;;20.37;53.93
46199;BME280;31928;52.104;10.030;2022-10-23T08:10:33;100408.03;;;20.40;54.09
46199;BME280;31928;52.104;10.030;2022-10-23T08:13:00;100409.13;;;20.44;53.93
46199;BME280;31928;52.104;10.030;2022-10-23T08:15:26;100407.75;;;20.46;54.03
46199;BME280;31928;52.104;10.030;2022-10-23T08:17:53;100407.19;;;20.49;53.80
46199;BME280;31928;52.104;10.030;2022-10-23T08:20:19;100395.75;;;20.52;54.12
46199;BME280;31928;52.104;10.030;2022-10-23T08:22:45;100399.00;;;20.54;53.71
46199;BME280;31928;52.104;10.030;2022-10-23T08:25:12;100399.56;;;20.56;53.78
46199;BME280;31928;52.104;10.030;2022-10-23T08:27:38;100385.38;;;20.59;53.97
46199;BME280;31928;52.104;10.030;2022-10-23T08:30:05;100394.91;;;20.61;53.87
46199;BME280;31928;52.104;10.030;2022-10-23T08:32:31;100401.44;;;20.65;53.92
46199;BME280;31928;52.104;10.030;2022-10-23T08:34:58;100401.97;;;20.67;53.99
46199;BME280;31928;52.104;10.030;2022-10-23T08:37:24;100390.81;;;20.69;53.87
46199;BME280;31928;52.104;10.030;2022-10-23T08:39:50;100393.25;;;20.70;53.86
46199;BME280;31928;52.104;10.030;2022-10-23T08:42:19;100396.56;;;20.72;53.70
46199;BME280;31928;52.104;10.030;2022-10-23T08:47:52;100402.53;;;20.74;53.62
46199;BME280;31928;52.104;10.030;2022-10-23T08:50:25;100396.28;;;20.74;53.78
46199;BME280;31928;52.104;10.030;2022-10-23T08:55:52;100394.03;;;20.71;53.31
46199;BME280;31928;52.104;10.030;2022-10-23T08:58:30;100394.63;;;20.68;53.49
46199;BME280;31928;52.104;10.030;2022-10-23T09:00:59;100387.81;;;20.65;53.42
46199;BME280;31928;52.104;10.030;2022-10-23T09:03:27;100378.81;;;20.65;53.25
46199;BME280;31928;52.104;10.030;2022-10-23T09:06:19;100372.81;;;20.63;53.76
46199;BME280;31928;52.104;10.030;2022-10-23T09:12:11;100390.53;;;20.65;53.71
46199;BME280;31928;52.104;10.030;2022-10-23T09:16:58;100388.34;;;20.67;53.43
46199;BME280;31928;52.104;10.030;2022-10-23T09:19:28;100386.16;;;20.69;53.43
46199;BME280;31928;52.104;10.030;2022-10-23T09:21:56;100387.53;;;20.72;53.59
46199;BME280;31928;52.104;10.030;2022-10-23T09:24:24;100378.00;;;20.74;53.65
46199;BME280;31928;52.104;10.030;2022-10-23T09:26:52;100384.00;;;20.76;53.79
46199;BME280;31928;52.104;10.030;2022-10-23T09:29:23;100382.34;;;20.80;53.87
46199;BME280;31928;52.104;10.030;2022-10-23T09:31:51;100380.69;;;20.84;53.83
46199;BME280;31928;52.104;10.030;2022-10-23T09:34:19;100375.50;;;20.88;53.69
46199;BME280;31928;52.104;10.030;2022-10-23T09:36:47;100368.41;;;20.92;53.77
46199;BME280;31928;52.104;10.030;2022-10-23T09:39:48;100377.34;;;20.97;53.27
46199;BME280;31928;52.104;10.030;2022-10-23T09:42:19;100371.34;;;21.00;53.06
46199;BME280;31928;52.104;10.030;2022-10-23T09:44:47;100366.44;;;21.02;53.23
46199;BME280;31928;52.104;10.030;2022-10-23T09:47:15;100372.41;;;21.04;53.32
46199;BME280;31928;52.104;10.030;2022-10-23T09:49:47;100369.41;;;21.06;53.01
46199;BME280;31928;52.104;10.030;2022-10-23T09:54:48;100363.13;;;21.05;53.07
46199;BME280;31928;52.104;10.030;2022-10-23T09:59:58;100362.06;;;21.06;53.11
46199;BME280;31928;52.104;10.030;2022-10-23T10:02:30;100356.03;;;21.04;52.87
46199;BME280;31928;52.104;10.030;2022-10-23T10:04:57;100359.91;;;21.03;52.83
46199;BME280;31928;52.104;10.030;2022-10-23T10:07:28;100356.63;;;21.01;52.80
46199;BME280;31928;52.104;10.030;2022-10-23T10:09:59;100356.91;;;21.00;52.82
46199;BME280;31928;52.104;10.030;2022-10-23T10:12:30;100358.00;;;20.99;52.75
46199;BME280;31928;52.104;10.030;2022-10-23T10:17:32;100339.78;;;20.94;52.87
46199;BME280;31928;52.104;10.030;2022-10-23T10:23:00;100340.31;;;20.91;52.77
46199;BME280;31928;52.104;10.030;2022-10-23T10:25:36;100340.59;;;20.90;52.53
46199;BME280;31928;52.104;10.030;2022-10-23T10:33:28;100320.13;;;20.92;52.83
46199;BME280;31928;52.104;10.030;2022-10-23T10:36:06;100319.06;;;20.93;53.17
46199;BME280;31928;52.104;10.030;2022-10-23T10:38:42;100321.75;;;20.98;53.14
46199;BME280;31928;52.104;10.030;2022-10-23T10:44:08;100317.34;;;21.07;53.21
46199;BME280;31928;52.104;10.030;2022-10-23T10:46:43;100309.34;;;21.15;53.05
46199;BME280;31928;52.104;10.030;2022-10-23T10:49:15;100298.13;;;21.22;53.04
46199;BME280;31928;52.104;10.030;2022-10-23T10:56:46;100305.59;;;21.45;53.04
46199;BME280;31928;52.104;10.030;2022-10-23T11:01:48;100303.31;;;21.62;53.19
46199;BME280;31928;52.104;10.030;2022-10-23T11:04:21;100298.34;;;21.69;52.55
46199;BME280;31928;52.104;10.030;2022-10-23T11:06:51;100302.88;;;21.78;53.05
46199;BME280;31928;52.104;10.030;2022-10-23T11:09:20;100293.28;;;21.85;52.77
46199;BME280;31928;52.104;10.030;2022-10-23T11:11:47;100291.28;;;21.91;52.74
46199;BME280;31928;52.104;10.030;2022-10-23T11:14:20;100290.16;;;21.97;52.40
46199;BME280;31928;52.104;10.030;2022-10-23T11:16:51;100284.66;;;22.02;52.42
46199;BME280;31928;52.104;10.030;2022-10-23T11:24:36;100260.13;;;22.20;52.29
46199;BME280;31928;52.104;10.030;2022-10-23T11:30:15;100246.47;;;22.43;52.92
46199;BME280;31928;52.104;10.030;2022-10-23T11:37:57;100241.19;;;22.89;52.60
46199;BME280;31928;52.104;10.030;2022-10-23T11:40:24;100231.78;;;22.99;52.60
46199;BME280;31928;52.104;10.030;2022-10-23T11:42:50;100227.25;;;23.08;51.87
46199;BME280;31928;52.104;10.030;2022-10-23T11:45:30;100223.84;;;23.16;51.50
46199;BME280;31928;52.104;10.030;2022-10-23T11:48:01;100218.78;;;23.23;51.55
46199;BME280;31928;52.104;10.030;2022-10-23T11:53:22;100192.91;;;23.34;50.91
46199;BME280;31928;52.104;10.030;2022-10-23T11:56:24;100195.53;;;23.39;50.95
46199;BME280;31928;52.104;10.030;2022-10-23T11:58:50;100189.47;;;23.42;49.87
46199;BME280;31928;52.104;10.030;2022-10-23T12:03:48;100186.03;;;23.50;50.28
46199;BME280;31928;52.104;10.030;2022-10-23T12:06:26;100188.16;;;23.53;50.61
46199;BME280;31928;52.104;10.030;2022-10-23T12:08:55;100188.38;;;23.57;50.70
46199;BME280;31928;52.104;10.030;2022-10-23T12:11:28;100182.31;;;23.59;50.37
46199;BME280;31928;52.104;10.030;2022-10-23T12:14:06;100171.06;;;23.61;50.56
46199;BME280;31928;52.104;10.030;2022-10-23T12:16:50;100172.06;;;23.65;50.63
46199;BME280;31928;52.104;10.030;2022-10-23T12:19:18;100165.50;;;23.66;50.26
46199;BME280;31928;52.104;10.030;2022-10-23T12:21:45;100167.66;;;23.69;49.97
46199;BME280;31928;52.104;10.030;2022-10-23T12:26:56;100156.91;;;23.72;50.26
46199;BME280;31928;52.104;10.030;2022-10-23T12:34:44;100151.31;;;23.77;49.72
46199;BME280;31928;52.104;10.030;2022-10-23T12:37:26;100152.63;;;23.80;49.87
46199;BME280;31928;52.104;10.030;2022-10-23T12:40:05;100133.66;;;23.83;50.20
46199;BME280;31928;52.104;10.030;2022-10-23T12:42:32;100125.66;;;23.87;50.19
46199;BME280;31928;52.104;10.030;2022-10-23T12:44:59;100124.56;;;23.88;50.27
46199;BME280;31928;52.104;10.030;2022-10-23T12:47:27;100124.25;;;23.89;49.79
46199;BME280;31928;52.104;10.030;2022-10-23T12:49:55;100129.72;;;23.89;49.79
46199;BME280;31928;52.104;10.030;2022-10-23T12:52:21;100127.28;;;23.88;49.07
46199;BME280;31928;52.104;10.030;2022-10-23T12:54:50;100125.13;;;23.85;48.75
46199;BME280;31928;52.104;10.030;2022-10-23T12:59:52;100122.81;;;23.78;49.46
46199;BME280;31928;52.104;10.030;2022-10-23T13:04:48;100112.88;;;23.69;49.24
46199;BME280;31928;52.104;10.030;2022-10-23T13:07:17;100106.38;;;23.65;49.18
46199;BME280;31928;52.104;10.030;2022-10-23T13:09:44;100106.16;;;23.61;49.29
46199;BME280;31928;52.104;10.030;2022-10-23T13:12:17;100088.72;;;23.58;49.05
46199;BME280;31928;52.104;10.030;2022-10-23T13:17:43;100082.53;;;23.52;49.28
46199;BME280;31928;52.104;10.030;2022-10-23T13:22:43;100075.53;;;23.46;49.15
46199;BME280;31928;52.104;10.030;2022-10-23T13:25:25;100065.22;;;23.43;49.11
46199;BME280;31928;52.104;10.030;2022-10-23T13:28:01;100058.41;;;23.41;49.42
46199;BME280;31928;52.104;10.030;2022-10-23T13:30:29;100064.19;;;23.39;49.24
46199;BME280;31928;52.104;10.030;2022-10-23T13:32:57;100078.47;;;23.36;49.09
46199;BME280;31928;52.104;10.030;2022-10-23T13:35:24;100061.56;;;23.34;49.25
46199;BME280;31928;52.104;10.030;2022-10-23T13:37:51;100044.63;;;23.32;49.34
46199;BME280;31928;52.104;10.030;2022-10-23T13:40:24;100046.84;;;23.30;49.21
46199;BME280;31928;52.104;10.030;2022-10-23T13:42:52;100051.81;;;23.28;49.29
46199;BME280;31928;52.104;10.030;2022-10-23T13:45:21;100059.53;;;23.26;49.13
46199;BME280;31928;52.104;10.030;2022-10-23T13:47:47;100060.94;;;23.24;49.38
46199;BME280;31928;52.104;10.030;2022-10-23T13:50:14;100059.31;;;23.23;49.58
46199;BME280;31928;52.104;10.030;2022-10-23T13:52:40;100052.53;;;23.20;49.25
46199;BME280;31928;52.104;10.030;2022-10-23T13:57:39;100049.88;;;23.15;49.20
46199;BME280;31928;52.104;10.030;2022-10-23T14:00:06;100046.66;;;23.13;49.15
46199;BME280;31928;52.104;10.030;2022-10-23T14:02:33;100040.66;;;23.11;49.50
46199;BME280;31928;52.104;10.030;2022-10-23T14:04:59;100045.31;;;23.11;49.56
46199;BME280;31928;52.104;10.030;2022-10-23T14:07:26;100046.75;;;23.08;49.13
46199;BME280;31928;52.104;10.030;2022-10-23T14:09:52;100036.38;;;23.05;49.15
46199;BME280;31928;52.104;10.030;2022-10-23T14:12:18;100046.00;;;23.03;49.14
46199;BME280;31928;52.104;10.030;2022-10-23T14:14:49;100046.31;;;23.01;49.58
46199;BME280;31928;52.104;10.030;2022-10-23T14:17:16;100019.56;;;22.98;49.52
46199;BME280;31928;52.104;10.030;2022-10-23T14:19:42;100021.25;;;22.95;49.20
46199;BME280;31928;52.104;10.030;2022-10-23T14:22:09;100010.94;;;22.92;49.44
46199;BME280;31928;52.104;10.030;2022-10-23T14:24:35;99998.44;;;22.86;48.47
46199;BME280;31928;52.104;10.030;2022-10-23T14:27:02;100007.53;;;22.81;48.59
46199;BME280;31928;52.104;10.030;2022-10-23T14:29:29;99996.41;;;22.78;48.82
46199;BME280;31928;52.104;10.030;2022-10-23T14:31:55;99995.41;;;22.74;49.10
46199;BME280;31928;52.104;10.030;2022-10-23T14:34:22;99988.91;;;22.70;49.39
46199;BME280;31928;52.104;10.030;2022-10-23T14:36:48;99983.53;;;22.65;48.82
46199;BME280;31928;52.104;10.030;2022-10-23T14:39:28;99991.22;;;22.63;48.98
46199;BME280;31928;52.104;10.030;2022-10-23T14:41:55;99974.09;;;22.57;49.00
46199;BME280;31928;52.104;10.030;2022-10-23T14:44:21;99971.16;;;22.54;49.09
46199;BME280;31928;52.104;10.030;2022-10-23T14:46:48;99969.53;;;22.53;49.34
46199;BME280;31928;52.104;10.030;2022-10-23T14:49:14;99963.56;;;22.51;49.37
46199;BME280;31928;52.104;10.030;2022-10-23T14:51:41;99965.75;;;22.49;49.49
46199;BME280;31928;52.104;10.030;2022-10-23T14:54:07;99955.75;;;22.44;49.39
46199;BME280;31928;52.104;10.030;2022-10-23T14:56:37;99940.47;;;22.43;49.35
46199;BME280;31928;52.104;10.030;2022-10-23T14:59:05;99952.81;;;22.41;49.50
46199;BME280;31928;52.104;10.030;2022-10-23T15:01:34;99941.88;;;22.41;49.51
46199;BME280;31928;52.104;10.030;2022-10-23T15:04:01;99928.28;;;22.36;49.01
46199;BME280;31928;52.104;10.030;2022-10-23T15:06:27;99940.06;;;22.37;49.48
46199;BME280;31928;52.104;10.030;2022-10-23T15:08:54;99925.06;;;22.34;49.14
46199;BME280;31928;52.104;10.030;2022-10-23T15:11:21;99927.28;;;22.32;49.36
46199;BME280;31928;52.104;10.030;2022-10-23T15:13:48;99906.25;;;22.33;49.45
46199;BME280;31928;52.104;10.030;2022-10-23T15:16:15;99910.88;;;22.32;49.51
46199;BME280;31928;52.104;10.030;2022-10-23T15:18:41;99916.66;;;22.31;49.46
46199;BME280;31928;52.104;10.030;2022-10-23T15:21:08;99901.38;;;22.30;49.36
46199;BME280;31928;52.104;10.030;2022-10-23T15:23:36;99911.50;;;22.29;49.28
46199;BME280;31928;52.104;10.030;2022-10-23T15:26:04;99903.59;;;22.28;49.13
46199;BME280;31928;52.104;10.030;2022-10-23T15:28:32;99894.59;;;22.27;49.45
46199;BME280;31928;52.104;10.030;2022-10-23T15:30:59;99896.78;;;22.25;49.35
46199;BME280;31928;52.104;10.030;2022-10-23T15:33:25;99890.81;;;22.23;49.42
46199;BME280;31928;52.104;10.030;2022-10-23T15:35:52;99897.38;;;22.22;49.05
46199;BME280;31928;52.104;10.030;2022-10-23T15:38:19;99885.94;;;22.20;49.22
46199;BME280;31928;52.104;10.030;2022-10-23T15:40:45;99869.03;;;22.18;49.28
46199;BME280;31928;52.104;10.030;2022-10-23T15:43:12;99866.91;;;22.15;48.75
46199;BME280;31928;52.104;10.030;2022-10-23T15:45:39;99859.81;;;22.14;48.79
46199;BME280;31928;52.104;10.030;2022-10-23T15:48:06;99858.81;;;22.10;48.51
46199;BME280;31928;52.104;10.030;2022-10-23T15:50:32;99864.28;;;22.10;48.92
46199;BME280;31928;52.104;10.030;2022-10-23T15:52:59;99848.50;;;22.07;48.86
46199;BME280;31928;52.104;10.030;2022-10-23T15:55:26;99867.09;;;22.05;48.67
46199;BME280;31928;52.104;10.030;2022-10-23T15:57:52;99861.13;;;22.03;48.91
46199;BME280;31928;52.104;10.030;2022-10-23T16:00:19;99866.59;;;22.03;48.93
46199;BME280;31928;52.104;10.030;2022-10-23T16:02:46;99860.59;;;22.01;48.81
46199;BME280;31928;52.104;10.030;2022-10-23T16:05:13;99848.06;;;22.00;49.01
46199;BME280;31928;52.104;10.030;2022-10-23T16:07:39;99833.38;;;21.96;49.05
46199;BME280;31928;52.104;10.030;2022-10-23T16:10:06;99844.31;;;21.96;49.03
46199;BME280;31928;52.104;10.030;2022-10-23T16:12:32;99844.63;;;21.95;48.90
46199;BME280;31928;52.104;10.030;2022-10-23T16:14:59;99844.63;;;21.95;49.14
46199;BME280;31928;52.104;10.030;2022-10-23T16:17:25;99819.56;;;21.93;49.11
46199;BME280;31928;52.104;10.030;2022-10-23T16:19:52;99801.53;;;21.92;48.61
46199;BME280;31928;52.104;10.030;2022-10-23T16:22:18;99792.81;;;21.90;48.98
46199;BME280;31928;52.104;10.030;2022-10-23T16:24:44;99788.47;;;21.89;48.82
46199;BME280;31928;52.104;10.030;2022-10-23T16:27:11;99789.91;;;21.86;48.42
46199;BME280;31928;52.104;10.030;2022-10-23T16:29:38;99792.66;;;21.86;48.57
46199;BME280;31928;52.104;10.030;2022-10-23T16:32:04;99796.16;;;21.87;48.46
46199;BME280;31928;52.104;10.030;2022-10-23T16:34:31;99787.97;;;21.87;48.41
46199;BME280;31928;52.104;10.030;2022-10-23T16:36:57;99792.66;;;21.86;48.42
46199;BME280;31928;52.104;10.030;2022-10-23T16:39:24;99783.31;;;21.87;48.82
46199;BME280;31928;52.104;10.030;2022-10-23T16:41:50;99772.41;;;21.87;48.77
46199;BME280;31928;52.104;10.030;2022-10-23T16:44:17;99772.41;;;21.87;48.76
46199;BME280;31928;52.104;10.030;2022-10-23T16:46:43;99777.84;;;21.87;48.58
46199;BME280;31928;52.104;10.030;2022-10-23T16:49:10;99777.84;;;21.87;48.47
46199;BME280;31928;52.104;10.030;2022-10-23T16:51:36;99776.25;;;21.86;48.24
46199;BME280;31928;52.104;10.030;2022-10-23T16:54:03;99775.44;;;21.86;48.76
46199;BME280;31928;52.104;10.030;2022-10-23T16:56:29;99774.63;;;21.85;48.89
46199;BME280;31928;52.104;10.030;2022-10-23T16:58:56;99789.38;;;21.84;48.75
46199;BME280;31928;52.104;10.030;2022-10-23T17:01:25;99796.47;;;21.85;48.98
46199;BME280;31928;52.104;10.030;2022-10-23T17:03:54;99794.06;;;21.84;48.63
46199;BME280;31928;52.104;10.030;2022-10-23T17:06:22;99803.03;;;21.84;48.58
46199;BME280;31928;52.104;10.030;2022-10-23T17:08:49;99788.59;;;21.84;48.59
46199;BME280;31928;52.104;10.030;2022-10-23T17:11:20;99776.84;;;21.83;48.67
46199;BME280;31928;52.104;10.030;2022-10-23T17:13:48;99785.88;;;21.84;48.82
46199;BME280;31928;52.104;10.030;2022-10-23T17:16:24;99776.03;;;21.83;48.85
46199;BME280;31928;52.104;10.030;2022-10-23T17:18:51;99791.00;;;21.85;48.75
46199;BME280;31928;52.104;10.030;2022-10-23T17:21:18;99784.72;;;21.85;48.69
46199;BME280;31928;52.104;10.030;2022-10-23T17:23:46;99775.75;;;21.84;48.65
46199;BME280;31928;52.104;10.030;2022-10-23T17:26:13;99762.41;;;21.83;48.73
46199;BME280;31928;52.104;10.030;2022-10-23T17:28:40;99764.59;;;21.81;48.20
46199;BME280;31928;52.104;10.030;2022-10-23T17:31:14;99774.72;;;21.80;48.23
46199;BME280;31928;52.104;10.030;2022-10-23T17:33:41;99774.72;;;21.80;48.45
46199;BME280;31928;52.104;10.030;2022-10-23T17:36:09;99771.78;;;21.77;48.57
46199;BME280;31928;52.104;10.030;2022-10-23T17:38:36;99782.38;;;21.78;48.42
46199;BME280;31928;52.104;10.030;2022-10-23T17:41:03;99788.16;;;21.77;48.64
46199;BME280;31928;52.104;10.030;2022-10-23T17:43:30;99790.06;;;21.76;48.47
46199;BME280;31928;52.104;10.030;2022-10-23T17:45:56;99783.53;;;21.77;48.71
46199;BME280;31928;52.104;10.030;2022-10-23T17:48:23;99781.91;;;21.76;48.69
46199;BME280;31928;52.104;10.030;2022-10-23T17:50:58;99781.38;;;21.74;48.18
46199;BME280;31928;52.104;10.030;2022-10-23T17:53:25;99791.19;;;21.75;48.65
46199;BME280;31928;52.104;10.030;2022-10-23T17:55:51;99792.81;;;21.76;48.56
46199;BME280;31928;52.104;10.030;2022-10-23T17:58:18;99793.03;;;21.80;48.82
46199;BME280;31928;52.104;10.030;2022-10-23T18:00:44;99777.75;;;21.79;48.67
46199;BME280;31928;52.104;10.030;2022-10-23T18:03:11;99779.09;;;21.81;48.45
46199;BME280;31928;52.104;10.030;2022-10-23T18:05:42;99779.88;;;21.82;48.14
46199;BME280;31928;52.104;10.030;2022-10-23T18:08:09;99777.94;;;21.82;48.67
46199;BME280;31928;52.104;10.030;2022-10-23T18:10:35;99788.88;;;21.82;48.40
46199;BME280;31928;52.104;10.030;2022-10-23T18:13:02;99783.41;;;21.82;48.45
46199;BME280;31928;52.104;10.030;2022-10-23T18:15:28;99780.69;;;21.82;48.60
46199;BME280;31928;52.104;10.030;2022-10-23T18:17:55;99816.75;;;21.79;48.34
46199;BME280;31928;52.104;10.030;2022-10-23T18:20:21;99814.72;;;21.72;47.56
46199;BME280;31928;52.104;10.030;2022-10-23T18:22:48;99828.38;;;21.72;48.22
46199;BME280;31928;52.104;10.030;2022-10-23T18:25:14;99830.78;;;21.73;48.47
46199;BME280;31928;52.104;10.030;2022-10-23T18:27:41;99826.75;;;21.71;48.72
46199;BME280;31928;52.104;10.030;2022-10-23T18:30:08;99835.00;;;21.66;48.15
46199;BME280;31928;52.104;10.030;2022-10-23T18:32:34;99842.09;;;21.67;48.87
46199;BME280;31928;52.104;10.030;2022-10-23T18:35:01;99853.59;;;21.64;48.74
46199;BME280;31928;52.104;10.030;2022-10-23T18:37:28;99856.63;;;21.62;48.78
46199;BME280;31928;52.104;10.030;2022-10-23T18:39:59;99847.91;;;21.60;48.69
46199;BME280;31928;52.104;10.030;2022-10-23T18:42:25;99843.25;;;21.61;48.81
46199;BME280;31928;52.104;10.030;2022-10-23T18:44:52;99860.25;;;21.58;49.01
46199;BME280;31928;52.104;10.030;2022-10-23T18:47:18;99862.47;;;21.56;49.02
46199;BME280;31928;52.104;10.030;2022-10-23T18:49:44;99869.59;;;21.52;49.10
46199;BME280;31928;52.104;10.030;2022-10-23T18:52:11;99894.72;;;21.49;49.24
46199;BME280;31928;52.104;10.030;2022-10-23T18:54:38;99869.94;;;21.45;49.14
46199;BME280;31928;52.104;10.030;2022-10-23T18:57:04;99896.47;;;21.40;49.21
46199;BME280;31928;52.104;10.030;2022-10-23T18:59:30;99879.09;;;21.36;49.15
46199;BME280;31928;52.104;10.030;2022-10-23T19:01:57;99886.25;;;21.32;49.94
46199;BME280;31928;52.104;10.030;2022-10-23T19:04:23;99911.56;;;21.32;49.39
46199;BME280;31928;52.104;10.030;2022-10-23T19:06:50;99921.75;;;21.27;50.03
46199;BME280;31928;52.104;10.030;2022-10-23T19:09:18;99893.16;;;21.24;49.72
46199;BME280;31928;52.104;10.030;2022-10-23T19:11:44;99915.84;;;21.20;49.76
46199;BME280;31928;52.104;10.030;2022-10-23T19:14:14;99902.28;;;21.15;49.75
46199;BME280;31928;52.104;10.030;2022-10-23T19:16:42;99910.22;;;21.12;50.10
46199;BME280;31928;52.104;10.030;2022-10-23T19:19:18;99917.66;;;21.06;50.66
46199;BME280;31928;52.104;10.030;2022-10-23T19:21:46;99916.41;;;20.99;50.81
46199;BME280;31928;52.104;10.030;2022-10-23T19:24:17;99923.25;;;20.96;50.55
46199;BME280;31928;52.104;10.030;2022-10-23T19:26:46;99912.38;;;20.91;51.40
46199;BME280;31928;52.104;10.030;2022-10-23T19:29:14;99915.72;;;20.88;50.49